»·PEaware :: N1976Z 49X-L52

N1976Z :: 49X-L52

FLIGHT INFORMATION

Flight Status: Arrived
Operator: Privately registered:
United States
More flights under this callsign
Pilot: Jay Z. (18662)
Aircraft: Unknown
(SF50)
More flights by this aircraft type
Origin: 49X Chemehuevi Valley
United States
Destination: L52 Oceano Co
United States
More flights between these airports :: More routes between these airports
Route: EED HEC PMD RZS
File this flight plan on PilotEdge
Remarks:
Altitude:
(Current/Filed)
16,500ft
Speed:
(Current/Filed)
350kts
Departed: 12-Jul-18 05:55 PM
Arrived: 12-Jul-18 07:08 PM
Distance/Time
Traveled:
307nm/1:13
Distance/Time
To Go:
Arrived

Flight Plot

Page will automatically refresh every two minutes.

Flight plan parsing failed; only flown route is shown


Map Options




Map Legend


Flown Route
Filed Route
Departure Airport
Arrival Airport
Navaid (VOR, NDB)
Fix

Horizontal Profiles

Position Reports

Time Latitude Longitude Heading Altitude Ground
Speed
12-Jul-18 17:47 34.529431 -114.430281 180 622ft 0kts
12-Jul-18 17:48 34.529431 -114.430281 180 622ft 0kts
12-Jul-18 17:49 34.529324 -114.430932 343 623ft 10kts
12-Jul-18 17:50 34.535124 -114.430946 1 623ft 23kts
12-Jul-18 17:51 34.535686 -114.431214 270 625ft 0kts
12-Jul-18 17:52 34.535686 -114.431214 270 625ft 0kts
12-Jul-18 17:53 34.535686 -114.431214 270 625ft 0kts
12-Jul-18 17:54 34.535686 -114.431214 270 625ft 0kts
12-Jul-18 17:55 34.535687 -114.431262 270 625ft 2kts
12-Jul-18 17:56 34.519901 -114.432009 180 840ft 136kts
12-Jul-18 17:57 34.528022 -114.403240 331 1209ft 213kts
12-Jul-18 17:58 34.582869 -114.432198 351 1321ft 220kts
12-Jul-18 17:59 34.644116 -114.439056 357 1551ft 215kts
12-Jul-18 18:00 34.687688 -114.452938 340 3773ft 102kts
12-Jul-18 18:01 34.712967 -114.461819 348 4228ft 98kts
12-Jul-18 18:02 34.745689 -114.469615 350 5139ft 158kts
12-Jul-18 18:03 34.766719 -114.522451 271 6256ft 233kts
12-Jul-18 18:04 34.769060 -114.607536 270 7567ft 264kts
12-Jul-18 18:05 34.771062 -114.696032 269 9047ft 271kts
12-Jul-18 18:06 34.772999 -114.786145 269 10264ft 280kts
12-Jul-18 18:07 34.775033 -114.884272 269 10808ft 300kts
12-Jul-18 18:08 34.777087 -114.987362 269 11228ft 309kts
12-Jul-18 18:09 34.779089 -115.092560 270 11635ft 313kts
12-Jul-18 18:10 34.781024 -115.198919 270 12039ft 315kts
12-Jul-18 18:11 34.782894 -115.305418 270 12439ft 316kts
12-Jul-18 18:12 34.784660 -115.412372 270 12839ft 316kts
12-Jul-18 18:13 34.786328 -115.519279 270 13238ft 316kts
12-Jul-18 18:14 34.787899 -115.625798 270 13635ft 316kts
12-Jul-18 18:15 34.789351 -115.730385 270 14025ft 315kts
12-Jul-18 18:16 34.790740 -115.837050 270 14424ft 315kts
12-Jul-18 18:17 34.792031 -115.943449 270 14823ft 315kts
12-Jul-18 18:18 34.793229 -116.049409 270 15394ft 310kts
12-Jul-18 18:19 34.794307 -116.153151 270 16082ft 305kts
12-Jul-18 18:20 34.795291 -116.256118 270 16568ft 309kts
12-Jul-18 18:21 34.796223 -116.363166 269 16530ft 322kts
12-Jul-18 18:22 34.795640 -116.473160 261 16494ft 326kts
12-Jul-18 18:23 34.785368 -116.582483 262 16512ft 327kts
12-Jul-18 18:24 34.774859 -116.689693 262 16509ft 327kts
12-Jul-18 18:25 34.763944 -116.799882 262 16509ft 328kts
12-Jul-18 18:26 34.752971 -116.909637 262 16513ft 328kts
12-Jul-18 18:27 34.741871 -117.019616 261 16542ft 328kts
12-Jul-18 18:28 34.730618 -117.130019 261 16495ft 332kts
12-Jul-18 18:29 34.719165 -117.241454 261 16499ft 332kts
12-Jul-18 18:30 34.707609 -117.352830 261 16500ft 333kts
12-Jul-18 18:31 34.695949 -117.464225 261 16500ft 333kts
12-Jul-18 18:32 34.684178 -117.575673 261 16497ft 333kts
12-Jul-18 18:33 34.672505 -117.685225 261 16275ft 338kts
12-Jul-18 18:34 34.660291 -117.798842 261 15942ft 342kts
12-Jul-18 18:35 34.647881 -117.913297 261 15548ft 344kts
12-Jul-18 18:36 34.635539 -118.026067 261 15028ft 347kts
12-Jul-18 18:37 34.626621 -118.138153 265 14621ft 347kts
12-Jul-18 18:38 34.619018 -118.253946 264 14417ft 342kts
12-Jul-18 18:39 34.611419 -118.368300 264 14220ft 340kts
12-Jul-18 18:40 34.603698 -118.482975 264 13957ft 341kts
12-Jul-18 18:41 34.595856 -118.597839 264 13667ft 342kts
12-Jul-18 18:42 34.588163 -118.709049 264 13446ft 340kts
12-Jul-18 18:43 34.580168 -118.823057 264 13247ft 339kts
12-Jul-18 18:44 34.572073 -118.936912 264 13048ft 339kts
12-Jul-18 18:45 34.563835 -119.051298 264 12849ft 340kts
12-Jul-18 18:46 34.555527 -119.165211 264 12706ft 338kts
12-Jul-18 18:47 34.547135 -119.278772 264 12608ft 337kts
12-Jul-18 18:48 34.538654 -119.392079 264 12511ft 337kts
12-Jul-18 18:49 34.530101 -119.504943 264 12399ft 337kts
12-Jul-18 18:50 34.521388 -119.618512 264 12208ft 339kts
12-Jul-18 18:51 34.512623 -119.731386 264 12012ft 339kts
12-Jul-18 18:52 34.551667 -119.830446 310 11765ft 339kts
12-Jul-18 18:53 34.612101 -119.917062 310 11560ft 322kts
12-Jul-18 18:54 34.666918 -119.995277 310 10146ft 304kts
12-Jul-18 18:55 34.720984 -120.072514 310 9006ft 297kts
12-Jul-18 18:56 34.773872 -120.148493 309 7946ft 292kts
12-Jul-18 18:57 34.824976 -120.222167 312 7113ft 272kts
12-Jul-18 18:58 34.873869 -120.292481 311 5390ft 269kts
12-Jul-18 18:59 34.921336 -120.360981 311 4525ft 254kts
12-Jul-18 19:00 34.963778 -120.423959 296 4172ft 229kts
12-Jul-18 19:01 34.970127 -120.498926 277 3586ft 230kts
12-Jul-18 19:02 34.976569 -120.580282 277 2987ft 239kts
12-Jul-18 19:03 35.001672 -120.646439 330 2309ft 217kts
12-Jul-18 19:04 35.056737 -120.662788 347 2188ft 182kts
12-Jul-18 19:05 35.093276 -120.636437 101 1567ft 196kts
12-Jul-18 19:06 35.067070 -120.590853 112 1291ft 117kts
12-Jul-18 19:07 35.082114 -120.588092 316 743ft 83kts
12-Jul-18 19:08 35.095583 -120.611058 302 268ft 80kts
12-Jul-18 19:09 35.103296 -120.625280 13 14ft 6kts
12-Jul-18 19:10 35.103527 -120.624791 206 15ft 0kts
12-Jul-18 19:11 35.103527 -120.624791 206 15ft 0kts
12-Jul-18 19:12 35.103527 -120.624791 206 15ft 0kts
12-Jul-18 19:13 35.103527 -120.624791 206 15ft 0kts
12-Jul-18 19:14 35.103527 -120.624791 206 15ft 0kts
12-Jul-18 19:15 35.103527 -120.624791 206 15ft 0kts
12-Jul-18 19:16 35.103527 -120.624791 206 15ft 0kts
12-Jul-18 19:17 35.103527 -120.624791 206 15ft 0kts
12-Jul-18 19:18 35.103527 -120.624791 206 15ft 0kts
12-Jul-18 19:19 35.103527 -120.624791 206 15ft 0kts
12-Jul-18 19:20 35.103527 -120.624791 206 15ft 0kts
12-Jul-18 19:21 35.103527 -120.624791 206 15ft 0kts
12-Jul-18 19:22 35.103527 -120.624791 206 15ft 0kts
12-Jul-18 19:23 35.103527 -120.624791 206 15ft 0kts
12-Jul-18 19:24 35.103527 -120.624791 206 15ft 0kts

Navigation Log

Ident Type
Flight plan parsing failed, navigation log unavailable